Time;durP1;ratioP1;P1;durP2;ratioP2;P2;SDS_P1;SDS_P2;PMS_P1;PMS_P2;Temp;Humidity;BMP_temperature;BMP_pressure;BME280_temperature;BME280_humidity;BME280_pressure;Samples;Min_cycle;Max_cycle;Signal;HPM_P1;HPM_P2
2021/08/01 00:00:13;;;;;;;8.80;7.85;;;;;;;;;;5095981;28;20094;-63
2021/08/01 00:02:41;;;;;;;9.02;8.18;;;;;;;;;;5077719;28;20377;-63
2021/08/01 00:05:08;;;;;;;11.77;9.95;;;;;;;;;;5095902;28;20034;-63
2021/08/01 00:07:34;;;;;;;10.93;9.23;;;;;;;;;;5095581;28;20043;-63
2021/08/01 00:10:00;;;;;;;8.65;7.03;;;;;;;;;;5077734;28;20073;-63
2021/08/01 00:12:26;;;;;;;7.63;6.80;;;;;;;;;;5095630;28;20040;-63
2021/08/01 00:14:51;;;;;;;7.10;6.00;;;;;;;;;;5095136;28;20032;-63
2021/08/01 00:17:17;;;;;;;7.45;6.70;;;;;;;;;;5095411;28;20040;-63
2021/08/01 00:19:42;;;;;;;6.22;5.63;;;;;;;;;;5095468;28;20031;-63
2021/08/01 00:22:08;;;;;;;7.45;5.97;;;;;;;;;;5095583;28;20032;-63
2021/08/01 00:24:33;;;;;;;7.05;5.70;;;;;;;;;;5095581;28;20035;-63
2021/08/01 00:26:58;;;;;;;7.63;6.47;;;;;;;;;;5095548;28;20032;-63
2021/08/01 00:29:24;;;;;;;7.50;5.80;;;;;;;;;;5095363;28;20063;-63
2021/08/01 00:31:50;;;;;;;6.50;5.90;;;;;;;;;;5077314;28;20040;-63
2021/08/01 00:34:16;;;;;;;8.05;6.28;;;;;;;;;;5095294;28;20085;-63
2021/08/01 00:36:41;;;;;;;7.50;6.68;;;;;;;;;;5094600;28;20032;-63
2021/08/01 00:39:07;;;;;;;9.25;7.40;;;;;;;;;;5095189;28;20123;-63
2021/08/01 00:41:33;;;;;;;9.50;7.25;;;;;;;;;;5095277;28;20036;-63
2021/08/01 00:43:58;;;;;;;8.65;6.28;;;;;;;;;;5060493;28;20407;-63
2021/08/01 00:46:24;;;;;;;10.50;6.90;;;;;;;;;;5095088;28;20035;-63
2021/08/01 00:48:50;;;;;;;8.85;6.43;;;;;;;;;;5060402;28;20062;-64
2021/08/01 00:51:16;;;;;;;7.07;6.40;;;;;;;;;;5076745;28;20055;-63
2021/08/01 00:53:42;;;;;;;7.32;6.13;;;;;;;;;;5094908;28;20032;-63
2021/08/01 00:56:09;;;;;;;6.80;6.10;;;;;;;;;;5076174;28;20043;-63
2021/08/01 00:58:34;;;;;;;6.72;6.13;;;;;;;;;;5094616;28;20047;-63
2021/08/01 01:01:07;;;;;;;6.32;5.78;;;;;;;;;;5094538;28;20392;-63
2021/08/01 01:03:42;;;;;;;8.05;6.20;;;;;;;;;;5076544;28;20040;-63
2021/08/01 01:06:21;;;;;;;8.40;6.53;;;;;;;;;;5076262;28;20051;-63
2021/08/01 01:08:50;;;;;;;6.88;6.28;;;;;;;;;;5076253;28;20036;-63
2021/08/01 01:11:42;;;;;;;8.13;6.50;;;;;;;;;;5094909;28;20043;-63
2021/08/01 01:14:11;;;;;;;6.85;5.93;;;;;;;;;;5076375;28;20032;-62
2021/08/01 01:16:40;;;;;;;8.52;6.07;;;;;;;;;;5076292;28;20039;-62
2021/08/01 01:19:08;;;;;;;7.93;6.47;;;;;;;;;;5076271;28;20495;-63
2021/08/01 01:21:43;;;;;;;10.57;7.45;;;;;;;;;;5076574;28;20039;-63
2021/08/01 01:24:08;;;;;;;6.97;6.28;;;;;;;;;;5076375;28;20059;-62
2021/08/01 01:27:13;;;;;;;6.68;6.00;;;;;;;;;;5059367;28;20502;-62
2021/08/01 01:29:57;;;;;;;6.47;5.72;;;;;;;;;;5094092;28;20036;-62
2021/08/01 01:32:27;;;;;;;10.50;5.72;;;;;;;;;;5093684;28;20044;-62
2021/08/01 01:34:56;;;;;;;6.05;5.53;;;;;;;;;;5076222;28;20111;-62
2021/08/01 01:37:23;;;;;;;6.53;5.85;;;;;;;;;;5094316;28;20414;-62
2021/08/01 01:39:51;;;;;;;6.85;5.78;;;;;;;;;;5093775;28;20070;-62
2021/08/01 01:42:36;;;;;;;6.07;5.60;;;;;;;;;;5094069;28;20093;-63
2021/08/01 01:45:02;;;;;;;6.40;5.80;;;;;;;;;;5075434;28;20484;-63
2021/08/01 01:47:33;;;;;;;5.95;5.32;;;;;;;;;;5075596;28;20069;-63
2021/08/01 01:49:59;;;;;;;9.88;6.28;;;;;;;;;;5075869;28;20040;-63
2021/08/01 01:52:27;;;;;;;6.70;5.97;;;;;;;;;;5059098;28;20098;-63
2021/08/01 01:55:04;;;;;;;7.13;5.85;;;;;;;;;;5075961;28;20036;-63
2021/08/01 01:57:31;;;;;;;5.65;5.13;;;;;;;;;;5075454;28;20480;-63
2021/08/01 01:59:57;;;;;;;6.32;5.72;;;;;;;;;;5075268;28;20044;-63
2021/08/01 02:02:23;;;;;;;6.85;5.95;;;;;;;;;;5075423;28;20043;-63
2021/08/01 02:04:50;;;;;;;6.65;5.90;;;;;;;;;;5093416;28;20062;-63
2021/08/01 02:07:41;;;;;;;7.25;5.60;;;;;;;;;;5093580;28;20499;-63
2021/08/01 02:10:48;;;;;;;7.30;6.07;;;;;;;;;;5092699;28;20391;-63
2021/08/01 02:13:17;;;;;;;5.80;5.22;;;;;;;;;;5064410;28;20131;-63
2021/08/01 02:15:47;;;;;;;6.40;5.47;;;;;;;;;;5093261;28;20024;-63
2021/08/01 02:18:21;;;;;;;5.75;5.25;;;;;;;;;;5075317;28;20032;-63
2021/08/01 02:20:48;;;;;;;7.38;5.28;;;;;;;;;;5075445;28;20043;-63
2021/08/01 02:23:21;;;;;;;6.20;5.60;;;;;;;;;;5075411;28;20119;-63
2021/08/01 02:25:47;;;;;;;9.18;5.95;;;;;;;;;;5075428;28;20032;-63
2021/08/01 02:28:15;;;;;;;6.78;5.97;;;;;;;;;;5074930;28;20418;-63
2021/08/01 02:30:42;;;;;;;6.50;5.82;;;;;;;;;;5075039;28;20068;-63
2021/08/01 02:33:07;;;;;;;5.47;5.07;;;;;;;;;;5075232;28;20427;-63
2021/08/01 02:35:33;;;;;;;6.53;5.22;;;;;;;;;;5075213;28;20044;-63
2021/08/01 02:38:01;;;;;;;6.07;5.47;;;;;;;;;;5077102;28;20023;-63
2021/08/01 02:40:33;;;;;;;14.57;10.98;;;;;;;;;;5079441;28;20123;-63
2021/08/01 02:43:01;;;;;;;12.30;10.18;;;;;;;;;;5097302;28;20028;-62
2021/08/01 02:45:28;;;;;;;12.60;10.27;;;;;;;;;;5079053;28;20016;-62
2021/08/01 02:47:54;;;;;;;11.10;8.10;;;;;;;;;;5062317;28;20062;-63
2021/08/01 02:50:21;;;;;;;7.43;6.80;;;;;;;;;;5097277;28;20039;-63
2021/08/01 02:52:59;;;;;;;7.93;6.15;;;;;;;;;;5078838;28;20028;-63
2021/08/01 02:55:27;;;;;;;7.57;6.80;;;;;;;;;;5096916;28;20082;-62
2021/08/01 02:57:53;;;;;;;6.90;5.65;;;;;;;;;;5096936;28;20037;-62
2021/08/01 03:00:19;;;;;;;6.43;5.82;;;;;;;;;;5078884;28;20384;-62
2021/08/01 03:02:48;;;;;;;8.60;6.78;;;;;;;;;;5097550;28;20541;-62
2021/08/01 03:05:16;;;;;;;7.60;6.03;;;;;;;;;;5078879;28;20127;-63
2021/08/01 03:07:43;;;;;;;6.85;5.57;;;;;;;;;;5078818;28;20028;-63
2021/08/01 03:10:09;;;;;;;7.22;6.10;;;;;;;;;;5078620;28;20500;-63
2021/08/01 03:12:41;;;;;;;7.35;6.63;;;;;;;;;;5078517;28;20166;-63
2021/08/01 03:15:06;;;;;;;7.38;6.32;;;;;;;;;;5078742;28;20388;-63
2021/08/01 03:17:32;;;;;;;7.07;6.38;;;;;;;;;;5061666;28;20025;-63
2021/08/01 03:19:58;;;;;;;8.15;6.47;;;;;;;;;;5096620;28;20032;-63
2021/08/01 03:22:24;;;;;;;7.72;6.97;;;;;;;;;;5096838;28;20026;-63
2021/08/01 03:24:51;;;;;;;6.90;6.25;;;;;;;;;;5096374;28;20093;-63
2021/08/01 03:27:18;;;;;;;7.45;6.60;;;;;;;;;;5061778;28;20120;-63
2021/08/01 03:29:44;;;;;;;6.60;5.82;;;;;;;;;;5096405;28;20067;-63
2021/08/01 03:32:15;;;;;;;9.63;6.03;;;;;;;;;;5096332;28;20038;-63
2021/08/01 03:34:42;;;;;;;8.50;6.32;;;;;;;;;;5061810;28;20086;-63
2021/08/01 03:37:07;;;;;;;6.50;5.90;;;;;;;;;;5096446;28;20020;-63
2021/08/01 03:39:52;;;;;;;6.45;5.82;;;;;;;;;;5096487;28;20039;-63
2021/08/01 03:42:17;;;;;;;6.10;5.55;;;;;;;;;;5078010;28;20036;-63
2021/08/01 03:44:43;;;;;;;6.57;5.78;;;;;;;;;;5096349;28;20024;-62
2021/08/01 03:47:09;;;;;;;7.00;6.25;;;;;;;;;;5096162;28;20036;-63
2021/08/01 03:49:34;;;;;;;7.55;6.15;;;;;;;;;;5095388;28;20020;-63
2021/08/01 03:52:00;;;;;;;7.60;6.90;;;;;;;;;;5095822;28;20035;-62
2021/08/01 03:54:25;;;;;;;6.95;6.22;;;;;;;;;;5095923;28;20101;-62
2021/08/01 03:56:51;;;;;;;6.97;6.05;;;;;;;;;;5057657;28;20043;-62
2021/08/01 03:59:16;;;;;;;6.28;5.70;;;;;;;;;;5075864;28;20609;-64
2021/08/01 04:01:42;;;;;;;6.68;6.00;;;;;;;;;;5075368;28;20032;-63
2021/08/01 04:04:08;;;;;;;7.18;6.50;;;;;;;;;;5075451;28;20021;-63
2021/08/01 04:06:33;;;;;;;7.07;6.15;;;;;;;;;;5075598;28;20564;-63
2021/08/01 04:08:59;;;;;;;7.00;6.30;;;;;;;;;;5075622;28;20490;-63
2021/08/01 04:11:26;;;;;;;9.10;5.88;;;;;;;;;;5075584;28;20032;-63
2021/08/01 04:13:51;;;;;;;7.10;6.25;;;;;;;;;;5075579;28;20027;-63
2021/08/01 04:16:17;;;;;;;6.60;5.90;;;;;;;;;;5075490;28;20036;-63
2021/08/01 04:18:42;;;;;;;6.80;5.93;;;;;;;;;;5075251;28;20048;-64
2021/08/01 04:21:09;;;;;;;7.28;6.32;;;;;;;;;;5075195;28;20039;-64
2021/08/01 04:23:35;;;;;;;6.38;5.80;;;;;;;;;;5073848;28;20052;-64
2021/08/01 04:26:01;;;;;;;8.80;6.28;;;;;;;;;;5075624;28;20036;-64
2021/08/01 04:28:26;;;;;;;8.20;6.47;;;;;;;;;;5075274;28;20032;-64
2021/08/01 04:30:51;;;;;;;8.32;6.45;;;;;;;;;;5073872;28;20408;-64
2021/08/01 04:33:17;;;;;;;8.93;6.68;;;;;;;;;;5075058;28;20051;-63
2021/08/01 04:35:42;;;;;;;9.93;6.75;;;;;;;;;;5074938;28;20032;-64
2021/08/01 04:38:08;;;;;;;9.13;7.10;;;;;;;;;;5074948;28;20055;-64
2021/08/01 04:40:33;;;;;;;8.80;7.30;;;;;;;;;;5074920;28;20112;-64
2021/08/01 04:42:59;;;;;;;10.60;7.40;;;;;;;;;;5074702;28;20360;-64
2021/08/01 04:45:24;;;;;;;8.57;7.07;;;;;;;;;;5074828;28;20036;-64
2021/08/01 04:47:50;;;;;;;8.35;6.35;;;;;;;;;;5074650;28;20027;-63
2021/08/01 04:50:15;;;;;;;7.68;6.82;;;;;;;;;;5074824;28;20028;-64
2021/08/01 04:52:41;;;;;;;10.23;6.30;;;;;;;;;;5074867;28;20035;-64
2021/08/01 04:55:07;;;;;;;8.52;6.72;;;;;;;;;;5074696;28;20068;-64
2021/08/01 04:57:32;;;;;;;9.50;7.13;;;;;;;;;;5093498;28;20127;-64
2021/08/01 04:59:57;;;;;;;12.75;7.95;;;;;;;;;;5094602;28;20040;-64
2021/08/01 05:02:23;;;;;;;8.55;7.07;;;;;;;;;;5094021;28;20484;-64
2021/08/01 05:04:49;;;;;;;7.75;6.95;;;;;;;;;;5076458;28;20036;-64
2021/08/01 05:07:14;;;;;;;8.98;6.47;;;;;;;;;;5076333;28;20024;-63
2021/08/01 05:09:40;;;;;;;10.80;7.25;;;;;;;;;;5094090;28;20040;-64
2021/08/01 05:12:05;;;;;;;8.65;7.70;;;;;;;;;;5094811;28;20395;-64
2021/08/01 05:14:30;;;;;;;15.32;8.68;;;;;;;;;;5076316;28;20040;-63
2021/08/01 05:16:56;;;;;;;11.77;8.57;;;;;;;;;;5094544;28;20055;-63
2021/08/01 05:19:22;;;;;;;8.30;7.10;;;;;;;;;;5094511;28;20123;-63
2021/08/01 05:21:47;;;;;;;9.18;6.68;;;;;;;;;;5094553;28;20396;-64
2021/08/01 05:24:13;;;;;;;8.70;6.40;;;;;;;;;;5076282;28;20475;-64
2021/08/01 05:26:38;;;;;;;9.48;6.85;;;;;;;;;;5094180;28;20035;-63
2021/08/01 05:29:06;;;;;;;7.30;6.45;;;;;;;;;;5094140;28;20441;-63
2021/08/01 05:31:31;;;;;;;8.82;6.72;;;;;;;;;;5094478;28;20032;-64
2021/08/01 05:33:57;;;;;;;7.40;6.28;;;;;;;;;;5094167;28;20036;-63
2021/08/01 05:36:22;;;;;;;6.57;5.95;;;;;;;;;;5094151;28;20031;-63
2021/08/01 05:38:48;;;;;;;8.95;6.30;;;;;;;;;;5093866;28;20036;-63
2021/08/01 05:41:16;;;;;;;8.02;6.65;;;;;;;;;;5094004;28;20020;-63
2021/08/01 05:43:42;;;;;;;7.18;6.03;;;;;;;;;;5094408;28;20032;-63
2021/08/01 05:46:11;;;;;;;9.60;6.05;;;;;;;;;;5075962;28;20520;-63
2021/08/01 05:48:37;;;;;;;8.07;6.70;;;;;;;;;;5094021;28;20048;-63
2021/08/01 05:51:08;;;;;;;6.70;6.03;;;;;;;;;;5093749;28;20106;-62
2021/08/01 05:53:34;;;;;;;8.35;6.03;;;;;;;;;;5093805;28;20084;-66
2021/08/01 05:56:09;;;;;;;6.72;6.13;;;;;;;;;;5093266;28;20114;-63
2021/08/01 05:58:35;;;;;;;6.45;5.65;;;;;;;;;;5093630;28;20055;-65
2021/08/01 06:01:05;;;;;;;6.35;5.75;;;;;;;;;;5093972;28;20032;-65
2021/08/01 06:03:31;;;;;;;5.45;5.05;;;;;;;;;;5093513;28;20452;-65
2021/08/01 06:06:06;;;;;;;10.05;6.65;;;;;;;;;;5093497;28;20035;-65
2021/08/01 06:08:31;;;;;;;7.45;6.47;;;;;;;;;;5093555;28;20048;-65
2021/08/01 06:10:57;;;;;;;6.13;5.57;;;;;;;;;;5093563;28;20023;-66
2021/08/01 06:13:22;;;;;;;5.75;5.25;;;;;;;;;;5075150;28;20036;-65
2021/08/01 06:15:47;;;;;;;6.43;5.90;;;;;;;;;;5093478;28;20036;-65
2021/08/01 06:18:13;;;;;;;8.10;6.30;;;;;;;;;;5093257;28;20095;-65
2021/08/01 06:20:38;;;;;;;7.10;6.38;;;;;;;;;;5093323;28;20459;-65
2021/08/01 06:23:04;;;;;;;8.20;7.40;;;;;;;;;;5093414;28;20039;-65
2021/08/01 06:25:31;;;;;;;8.20;7.30;;;;;;;;;;5093398;28;20056;-65
2021/08/01 06:27:57;;;;;;;7.93;7.00;;;;;;;;;;5093545;28;20043;-66
2021/08/01 06:30:22;;;;;;;8.07;7.28;;;;;;;;;;5075433;28;20028;-65
2021/08/01 06:32:48;;;;;;;6.90;6.30;;;;;;;;;;5093470;28;20037;-65
2021/08/01 06:35:13;;;;;;;6.88;5.85;;;;;;;;;;5093363;28;20062;-66
2021/08/01 06:37:39;;;;;;;6.50;5.95;;;;;;;;;;5093227;28;20118;-66
2021/08/01 06:40:04;;;;;;;6.60;6.00;;;;;;;;;;5093169;28;20047;-65
2021/08/01 06:42:30;;;;;;;6.88;6.05;;;;;;;;;;5093245;28;20048;-65
2021/08/01 06:44:55;;;;;;;7.07;6.03;;;;;;;;;;5093228;28;20028;-65
2021/08/01 06:47:21;;;;;;;6.45;5.85;;;;;;;;;;5093242;28;20058;-65
2021/08/01 06:49:47;;;;;;;6.45;5.35;;;;;;;;;;5093241;28;20024;-65
2021/08/01 06:52:13;;;;;;;5.65;5.18;;;;;;;;;;5093244;28;20089;-66
2021/08/01 06:54:38;;;;;;;7.35;5.28;;;;;;;;;;5075057;28;20024;-65
2021/08/01 06:57:04;;;;;;;5.10;4.70;;;;;;;;;;5093040;28;20040;-65
2021/08/01 06:59:30;;;;;;;5.88;5.05;;;;;;;;;;5092557;28;20040;-65
2021/08/01 07:01:56;;;;;;;5.07;4.68;;;;;;;;;;5092723;28;20040;-63
2021/08/01 07:04:21;;;;;;;6.43;4.63;;;;;;;;;;5092961;28;20020;-65
2021/08/01 07:06:50;;;;;;;7.10;4.60;;;;;;;;;;5092856;28;20089;-65
2021/08/01 07:09:15;;;;;;;5.22;4.72;;;;;;;;;;5093279;28;20036;-65
2021/08/01 07:11:41;;;;;;;5.65;4.75;;;;;;;;;;5092946;28;20036;-65
2021/08/01 07:14:06;;;;;;;6.30;4.60;;;;;;;;;;5093029;28;20020;-65
2021/08/01 07:16:32;;;;;;;4.63;4.20;;;;;;;;;;5092911;28;20032;-65
2021/08/01 07:18:57;;;;;;;4.88;4.35;;;;;;;;;;5092627;28;20101;-65
2021/08/01 07:21:23;;;;;;;5.07;3.95;;;;;;;;;;5092743;28;20181;-65
2021/08/01 07:23:48;;;;;;;5.50;4.47;;;;;;;;;;5093034;28;20031;-65
2021/08/01 07:26:14;;;;;;;6.55;4.40;;;;;;;;;;5096339;28;20031;-65
2021/08/01 07:28:39;;;;;;;4.47;4.07;;;;;;;;;;5096437;28;20479;-65
2021/08/01 07:31:05;;;;;;;5.43;4.93;;;;;;;;;;5096393;28;20044;-65
2021/08/01 07:33:30;;;;;;;5.43;4.93;;;;;;;;;;5096220;28;20119;-65
2021/08/01 07:35:57;;;;;;;5.78;5.13;;;;;;;;;;5096448;28;20407;-63
2021/08/01 07:38:24;;;;;;;6.88;5.97;;;;;;;;;;5078245;28;20178;-63
2021/08/01 07:40:50;;;;;;;5.93;5.43;;;;;;;;;;5078138;28;20403;-62
2021/08/01 07:43:15;;;;;;;7.20;6.50;;;;;;;;;;5096281;28;20028;-62
2021/08/01 07:45:41;;;;;;;5.90;5.10;;;;;;;;;;5061320;28;20043;-62
2021/08/01 07:48:06;;;;;;;7.35;5.70;;;;;;;;;;5096330;28;20055;-62
2021/08/01 07:50:32;;;;;;;5.72;5.20;;;;;;;;;;5096243;28;20119;-62
2021/08/01 07:52:58;;;;;;;7.22;5.28;;;;;;;;;;5095453;28;20032;-62
2021/08/01 07:55:24;;;;;;;6.40;5.30;;;;;;;;;;5095800;28;20516;-62
2021/08/01 07:57:50;;;;;;;6.40;5.25;;;;;;;;;;5078205;28;20069;-62
2021/08/01 08:00:16;;;;;;;5.97;5.43;;;;;;;;;;5095903;28;20138;-62
2021/08/01 08:02:42;;;;;;;6.22;5.20;;;;;;;;;;5095914;28;20021;-62
2021/08/01 08:05:08;;;;;;;7.40;5.20;;;;;;;;;;5095694;28;20028;-62
2021/08/01 08:07:34;;;;;;;9.52;5.07;;;;;;;;;;5076832;28;20024;-62
2021/08/01 08:09:59;;;;;;;5.65;4.53;;;;;;;;;;5094141;28;20035;-62
2021/08/01 08:12:24;;;;;;;5.75;4.70;;;;;;;;;;5093777;28;20369;-62
2021/08/01 08:14:51;;;;;;;4.97;4.57;;;;;;;;;;5094035;28;20420;-62
2021/08/01 08:20:51;;;;;;;5.78;4.53;;;;;;;;;;5095844;28;20074;-62
2021/08/01 08:26:53;;;;;;;4.57;4.13;;;;;;;;;;5095994;28;20130;-62
2021/08/01 08:32:53;;;;;;;5.75;4.25;;;;;;;;;;5095907;28;20065;-62
2021/08/01 08:38:54;;;;;;;5.80;4.50;;;;;;;;;;5095589;28;20039;-62
2021/08/01 08:55:15;;;;;;;4.55;4.10;;;;;;;;;;5095445;28;20077;-62
2021/08/01 09:01:28;;;;;;;6.25;4.22;;;;;;;;;;5095314;28;20036;-62
2021/08/01 09:07:30;;;;;;;5.78;4.15;;;;;;;;;;5095212;28;20062;-62
2021/08/01 09:13:44;;;;;;;5.10;4.50;;;;;;;;;;5095080;28;20080;-62
2021/08/01 09:19:46;;;;;;;5.80;4.35;;;;;;;;;;5094707;28;20035;-62
2021/08/01 09:36:32;;;;;;;5.25;4.68;;;;;;;;;;5052432;28;20055;-62
2021/08/01 09:46:43;;;;;;;7.93;4.95;;;;;;;;;;5052268;28;20028;-62
2021/08/01 09:52:43;;;;;;;5.47;4.97;;;;;;;;;;5052146;28;20115;-62
2021/08/01 10:02:06;;;;;;;6.95;5.78;;;;;;;;;;5094262;28;20128;-62
2021/08/01 10:08:06;;;;;;;8.57;6.35;;;;;;;;;;5094169;28;20506;-62
2021/08/01 10:18:16;;;;;;;8.05;5.55;;;;;;;;;;5094068;28;20106;-62
2021/08/01 10:35:17;;;;;;;6.25;5.15;;;;;;;;;;5093630;28;20089;-62
2021/08/01 10:41:20;;;;;;;6.43;5.35;;;;;;;;;;5093581;28;20518;-62
2021/08/01 10:47:21;;;;;;;5.05;4.55;;;;;;;;;;5093766;28;20047;-62
2021/08/01 10:53:23;;;;;;;5.63;4.97;;;;;;;;;;5093719;28;20074;-62
2021/08/01 11:03:17;;;;;;;4.95;4.47;;;;;;;;;;5097370;28;20026;-62
2021/08/01 11:13:17;;;;;;;7.30;5.28;;;;;;;;;;5097437;28;20443;-62
2021/08/01 11:26:29;;;;;;;5.18;4.10;;;;;;;;;;5097198;28;20023;-62
2021/08/01 11:43:15;;;;;;;4.50;4.18;;;;;;;;;;5054616;28;20039;-62
2021/08/01 11:53:27;;;;;;;3.85;3.55;;;;;;;;;;5054407;28;20071;-62
2021/08/01 12:07:16;;;;;;;4.22;3.92;;;;;;;;;;5084246;28;20078;-62
2021/08/01 12:13:16;;;;;;;6.40;3.92;;;;;;;;;;5096295;28;20552;-62
2021/08/01 12:19:19;;;;;;;4.40;4.00;;;;;;;;;;5095983;28;20463;-62
2021/08/01 12:25:20;;;;;;;3.22;3.03;;;;;;;;;;5096080;28;20084;-62
2021/08/01 12:31:21;;;;;;;3.63;3.33;;;;;;;;;;5095926;28;20062;-62
2021/08/01 12:37:22;;;;;;;5.68;3.50;;;;;;;;;;5095819;28;20031;-62
2021/08/01 12:43:26;;;;;;;4.03;3.30;;;;;;;;;;5095456;28;20053;-62
2021/08/01 12:49:27;;;;;;;3.50;3.20;;;;;;;;;;5095583;28;20054;-62
2021/08/01 12:55:28;;;;;;;2.78;2.58;;;;;;;;;;5095483;28;20038;-62
2021/08/01 13:04:52;;;;;;;3.17;2.63;;;;;;;;;;5095032;28;20578;-62
2021/08/01 13:10:53;;;;;;;5.55;2.58;;;;;;;;;;5095166;28;20035;-62
2021/08/01 13:16:54;;;;;;;2.55;2.35;;;;;;;;;;5095108;28;20036;-62
2021/08/01 13:22:57;;;;;;;7.45;2.50;;;;;;;;;;5094138;28;20100;-62
2021/08/01 13:29:01;;;;;;;5.35;2.63;;;;;;;;;;5094859;28;20035;-62
2021/08/01 13:35:02;;;;;;;2.90;1.90;;;;;;;;;;5094722;28;20027;-62
2021/08/01 13:41:01;;;;;;;3.50;2.10;;;;;;;;;;5094558;28;20031;-62
2021/08/01 13:43:27;;;;;;;2.50;2.10;;;;;;;;;;5071115;28;20052;-62
2021/08/01 13:45:53;;;;;;;1.98;1.88;;;;;;;;;;5091076;28;20032;-62
2021/08/01 13:48:19;;;;;;;2.25;2.08;;;;;;;;;;5072046;28;20769;-62
2021/08/01 13:50:44;;;;;;;3.10;2.00;;;;;;;;;;5090360;28;20082;-62
2021/08/01 13:53:10;;;;;;;3.05;2.03;;;;;;;;;;5090193;28;20126;-62
2021/08/01 13:55:35;;;;;;;3.45;2.42;;;;;;;;;;5090240;28;20036;-62
2021/08/01 13:58:02;;;;;;;2.38;2.20;;;;;;;;;;5089734;28;20032;-62
2021/08/01 14:00:27;;;;;;;3.83;2.10;;;;;;;;;;5089922;28;20043;-62
2021/08/01 14:02:53;;;;;;;2.92;2.13;;;;;;;;;;5090274;28;20040;-62
2021/08/01 14:05:18;;;;;;;2.35;2.15;;;;;;;;;;5090257;28;20028;-62
2021/08/01 14:07:44;;;;;;;2.00;1.90;;;;;;;;;;5090832;28;20600;-63
2021/08/01 14:10:10;;;;;;;3.28;2.40;;;;;;;;;;5090355;28;20024;-62
2021/08/01 14:12:36;;;;;;;1.85;1.75;;;;;;;;;;5090740;28;20054;-62
2021/08/01 14:15:07;;;;;;;2.20;2.10;;;;;;;;;;5090330;28;20471;-62
2021/08/01 14:17:34;;;;;;;2.35;2.20;;;;;;;;;;5090413;28;20036;-62
2021/08/01 14:19:59;;;;;;;2.28;2.10;;;;;;;;;;5071913;28;20040;-62
2021/08/01 14:22:25;;;;;;;2.05;1.90;;;;;;;;;;5090384;28;20101;-62
2021/08/01 14:24:50;;;;;;;2.33;2.13;;;;;;;;;;5071955;28;20353;-62
2021/08/01 14:27:16;;;;;;;2.40;2.20;;;;;;;;;;5090594;28;20549;-61
2021/08/01 14:29:43;;;;;;;2.03;1.92;;;;;;;;;;5090535;28;20036;-61
2021/08/01 14:32:12;;;;;;;3.88;2.10;;;;;;;;;;5090508;28;20051;-61
2021/08/01 14:34:41;;;;;;;2.47;2.28;;;;;;;;;;5093225;28;20032;-61
2021/08/01 14:37:07;;;;;;;2.97;2.08;;;;;;;;;;5094545;28;20054;-61
2021/08/01 14:39:33;;;;;;;2.00;1.90;;;;;;;;;;5094417;28;20042;-62
2021/08/01 14:41:59;;;;;;;3.20;2.20;;;;;;;;;;5094848;28;20446;-61
2021/08/01 14:44:25;;;;;;;2.40;2.20;;;;;;;;;;5094571;28;20027;-61
2021/08/01 14:46:50;;;;;;;2.20;2.10;;;;;;;;;;5094764;28;20040;-61
2021/08/01 14:49:18;;;;;;;4.10;2.03;;;;;;;;;;5094760;28;20044;-61
2021/08/01 14:54:39;;;;;;;2.22;2.10;;;;;;;;;;5056081;28;20041;-61
2021/08/01 14:57:10;;;;;;;2.55;2.35;;;;;;;;;;5094675;28;20044;-61
2021/08/01 14:59:39;;;;;;;2.35;2.25;;;;;;;;;;5094087;28;20048;-61
2021/08/01 15:02:09;;;;;;;2.20;2.00;;;;;;;;;;5094371;28;20119;-61
2021/08/01 15:04:46;;;;;;;4.07;2.50;;;;;;;;;;5094193;28;20040;-61
2021/08/01 15:07:16;;;;;;;2.83;2.20;;;;;;;;;;5094562;28;20510;-61
2021/08/01 15:09:59;;;;;;;2.78;2.58;;;;;;;;;;5094042;28;20093;-61
2021/08/01 15:12:47;;;;;;;2.78;2.58;;;;;;;;;;5094332;28;20044;-61
2021/08/01 15:15:18;;;;;;;2.45;2.20;;;;;;;;;;5094321;28;20094;-61
2021/08/01 15:17:47;;;;;;;5.00;3.40;;;;;;;;;;5094107;28;20119;-61
2021/08/01 15:20:13;;;;;;;4.72;2.75;;;;;;;;;;5093717;28;20431;-61
2021/08/01 15:22:47;;;;;;;3.40;3.17;;;;;;;;;;5094043;28;20043;-61
2021/08/01 15:25:15;;;;;;;3.17;2.97;;;;;;;;;;5094056;28;20064;-61
2021/08/01 15:27:41;;;;;;;3.90;3.55;;;;;;;;;;5093767;28;20036;-61
2021/08/01 15:30:11;;;;;;;3.00;2.80;;;;;;;;;;5075603;28;20044;-61
2021/08/01 15:32:37;;;;;;;3.85;3.55;;;;;;;;;;5093473;28;20101;-61
2021/08/01 15:35:03;;;;;;;4.93;4.50;;;;;;;;;;5093588;28;20519;-61
2021/08/01 15:37:29;;;;;;;7.10;5.72;;;;;;;;;;5093701;28;20112;-61
2021/08/01 15:39:56;;;;;;;6.60;5.30;;;;;;;;;;5075241;28;20383;-61
2021/08/01 15:42:22;;;;;;;8.43;5.75;;;;;;;;;;5075482;28;20035;-61
2021/08/01 15:44:51;;;;;;;15.85;10.20;;;;;;;;;;5074052;28;20395;-61
2021/08/01 15:47:17;;;;;;;12.68;7.90;;;;;;;;;;5093680;28;20036;-61
2021/08/01 15:49:43;;;;;;;6.78;5.18;;;;;;;;;;5093327;28;20127;-61
2021/08/01 15:52:10;;;;;;;6.18;5.18;;;;;;;;;;5093363;28;20550;-61
2021/08/01 15:54:36;;;;;;;4.35;3.80;;;;;;;;;;5093081;28;20434;-61
2021/08/01 15:57:06;;;;;;;5.25;4.03;;;;;;;;;;5093068;28;20040;-61
2021/08/01 15:59:32;;;;;;;;;;;;;;;;;;5075152;28;20036;-61
2021/08/01 16:02:16;;;;;;;4.65;2.25;;;;;;;;;;5092948;28;19930;-61
2021/08/01 16:04:47;;;;;;;4.50;3.92;;;;;;;;;;5093076;28;20150;-61
2021/08/01 16:07:20;;;;;;;3.42;3.15;;;;;;;;;;5093411;28;20069;-61
2021/08/01 16:10:04;;;;;;;4.75;4.35;;;;;;;;;;5093054;28;20036;-61
2021/08/01 16:12:32;;;;;;;8.73;5.35;;;;;;;;;;5093028;28;20479;-61
2021/08/01 16:15:05;;;;;;;4.75;4.35;;;;;;;;;;5092562;28;20027;-61
2021/08/01 16:17:35;;;;;;;8.68;5.85;;;;;;;;;;5093105;28;20075;-61
2021/08/01 16:20:00;;;;;;;6.03;4.83;;;;;;;;;;5092836;28;20058;-61
2021/08/01 16:22:28;;;;;;;14.70;10.82;;;;;;;;;;5092479;28;20547;-61
2021/08/01 16:24:54;;;;;;;10.27;7.07;;;;;;;;;;5092366;28;20028;-61
2021/08/01 16:27:20;;;;;;;2.97;2.78;;;;;;;;;;5092428;28;20526;-61
2021/08/01 16:29:47;;;;;;;6.63;4.65;;;;;;;;;;5074636;28;20044;-61
2021/08/01 16:32:13;;;;;;;3.80;3.50;;;;;;;;;;5092236;28;20032;-61
2021/08/01 16:34:39;;;;;;;6.43;5.28;;;;;;;;;;5092522;28;20500;-61
2021/08/01 16:37:06;;;;;;;5.47;4.65;;;;;;;;;;5092640;28;20055;-61
2021/08/01 16:39:34;;;;;;;6.03;4.75;;;;;;;;;;5092334;28;20024;-61
2021/08/01 16:42:03;;;;;;;3.03;2.72;;;;;;;;;;5092116;28;20060;-61
2021/08/01 16:44:47;;;;;;;7.65;4.53;;;;;;;;;;5091794;28;20379;-63
2021/08/01 16:47:26;;;;;;;5.25;3.80;;;;;;;;;;5091965;28;20174;-64
2021/08/01 16:49:52;;;;;;;3.45;2.65;;;;;;;;;;5091311;28;20047;-63
2021/08/01 16:52:21;;;;;;;2.58;2.38;;;;;;;;;;5082387;28;20041;-64
2021/08/01 16:54:47;;;;;;;4.40;2.60;;;;;;;;;;5061614;28;20483;-63
2021/08/01 16:57:19;;;;;;;2.58;2.38;;;;;;;;;;5061446;28;20033;-63
2021/08/01 16:59:49;;;;;;;4.88;2.58;;;;;;;;;;5080562;28;20541;-63
2021/08/01 17:02:15;;;;;;;;;;;;;;;;;;5080252;28;20032;-63
2021/08/01 17:04:42;;;;;;;4.55;2.40;;;;;;;;;;5081872;28;19912;-64
2021/08/01 17:07:13;;;;;;;2.78;2.63;;;;;;;;;;5081895;28;20032;-64
2021/08/01 17:09:40;;;;;;;2.55;2.35;;;;;;;;;;5071292;28;20045;-62
2021/08/01 17:12:09;;;;;;;2.20;2.10;;;;;;;;;;5071613;28;20476;-63
2021/08/01 17:14:39;;;;;;;2.25;1.77;;;;;;;;;;5071242;28;20037;-62
2021/08/01 17:17:06;;;;;;;3.35;2.10;;;;;;;;;;5071339;28;20044;-62
2021/08/01 17:19:32;;;;;;;2.95;2.10;;;;;;;;;;5071189;28;20072;-62
2021/08/01 17:21:59;;;;;;;2.47;1.77;;;;;;;;;;5071083;28;20819;-62
2021/08/01 17:24:24;;;;;;;3.47;1.80;;;;;;;;;;5070228;28;20119;-62
2021/08/01 17:26:50;;;;;;;2.42;1.85;;;;;;;;;;5070718;28;20510;-62
2021/08/01 17:29:16;;;;;;;2.15;1.75;;;;;;;;;;5070895;28;20037;-62
2021/08/01 17:31:44;;;;;;;2.03;1.92;;;;;;;;;;5082556;28;20036;-62
2021/08/01 17:34:20;;;;;;;4.57;2.00;;;;;;;;;;5072064;28;20027;-62
2021/08/01 17:36:49;;;;;;;5.43;2.20;;;;;;;;;;5088550;28;20036;-62
2021/08/01 17:39:24;;;;;;;2.90;2.03;;;;;;;;;;5090342;28;20074;-63
2021/08/01 17:41:50;;;;;;;2.88;2.20;;;;;;;;;;5070132;28;20278;-63
2021/08/01 17:44:18;;;;;;;2.17;2.00;;;;;;;;;;5090441;28;20024;-62
2021/08/01 17:46:44;;;;;;;2.15;2.00;;;;;;;;;;5091152;28;20042;-62
2021/08/01 17:49:11;;;;;;;2.72;2.22;;;;;;;;;;5091094;28;20103;-62
2021/08/01 17:51:37;;;;;;;2.75;2.10;;;;;;;;;;5091077;28;20052;-62
2021/08/01 17:54:02;;;;;;;2.17;2.03;;;;;;;;;;5090837;28;20035;-62
2021/08/01 17:56:28;;;;;;;4.05;2.40;;;;;;;;;;5090922;28;20036;-62
2021/08/01 17:58:54;;;;;;;4.25;2.10;;;;;;;;;;5090842;28;20032;-62
2021/08/01 18:01:20;;;;;;;2.92;2.28;;;;;;;;;;5090007;28;20047;-62
2021/08/01 18:03:46;;;;;;;2.20;2.00;;;;;;;;;;5090057;28;20039;-62
2021/08/01 18:06:12;;;;;;;4.22;2.58;;;;;;;;;;5090864;28;20032;-63
2021/08/01 18:08:48;;;;;;;3.05;2.25;;;;;;;;;;5090142;28;20460;-62
2021/08/01 18:11:17;;;;;;;4.45;2.22;;;;;;;;;;5090744;28;20453;-62
2021/08/01 18:13:48;;;;;;;2.38;2.05;;;;;;;;;;5090435;28;20032;-63
2021/08/01 18:16:17;;;;;;;3.13;2.17;;;;;;;;;;5071482;28;20044;-63
2021/08/01 18:18:43;;;;;;;2.60;2.17;;;;;;;;;;5072101;28;20361;-64
2021/08/01 18:21:11;;;;;;;2.75;2.42;;;;;;;;;;5090354;28;20036;-64
2021/08/01 18:23:43;;;;;;;2.63;2.15;;;;;;;;;;5089669;28;20027;-63
2021/08/01 18:26:09;;;;;;;2.88;2.47;;;;;;;;;;5089680;28;20040;-64
2021/08/01 18:28:35;;;;;;;5.80;2.72;;;;;;;;;;5071756;28;20475;-63
2021/08/01 18:31:02;;;;;;;2.40;2.30;;;;;;;;;;5090404;28;20407;-62
2021/08/01 18:33:29;;;;;;;3.40;2.85;;;;;;;;;;5090027;28;20039;-64
2021/08/01 18:35:54;;;;;;;3.25;2.17;;;;;;;;;;5089885;28;20122;-64